sensor_id;sensor_type;location;lat;lon;timestamp;pressure;altitude;pressure_sealevel;temperature;humidity
76864;BME280;65834;52.364;9.754;2023-12-20T00:00:16;100529.50;;;8.54;88.96
76864;BME280;65834;52.364;9.754;2023-12-20T00:02:46;100522.25;;;8.54;87.95
76864;BME280;65834;52.364;9.754;2023-12-20T00:05:18;100530.16;;;8.56;87.21
76864;BME280;65834;52.364;9.754;2023-12-20T00:07:48;100529.19;;;8.49;88.30
76864;BME280;65834;52.364;9.754;2023-12-20T00:10:18;100534.44;;;8.42;87.96
76864;BME280;65834;52.364;9.754;2023-12-20T00:12:47;100531.06;;;8.40;88.96
76864;BME280;65834;52.364;9.754;2023-12-20T00:15:17;100533.25;;;8.37;88.90
76864;BME280;65834;52.364;9.754;2023-12-20T00:17:46;100532.75;;;8.41;88.26
76864;BME280;65834;52.364;9.754;2023-12-20T00:20:19;100530.06;;;8.41;87.84
76864;BME280;65834;52.364;9.754;2023-12-20T00:22:48;100540.56;;;8.28;88.33
76864;BME280;65834;52.364;9.754;2023-12-20T00:25:18;100545.59;;;8.31;88.14
76864;BME280;65834;52.364;9.754;2023-12-20T00:27:47;100552.16;;;8.29;88.16
76864;BME280;65834;52.364;9.754;2023-12-20T00:30:17;100543.25;;;8.20;89.16
76864;BME280;65834;52.364;9.754;2023-12-20T00:32:47;100550.97;;;8.31;87.55
76864;BME280;65834;52.364;9.754;2023-12-20T00:35:19;100556.38;;;8.23;87.82
76864;BME280;65834;52.364;9.754;2023-12-20T00:37:48;100558.06;;;8.16;88.76
76864;BME280;65834;52.364;9.754;2023-12-20T00:40:18;100561.66;;;8.08;89.07
76864;BME280;65834;52.364;9.754;2023-12-20T00:42:49;100554.22;;;8.10;89.13
76864;BME280;65834;52.364;9.754;2023-12-20T00:45:18;100555.78;;;8.05;89.39
76864;BME280;65834;52.364;9.754;2023-12-20T00:47:48;100562.81;;;8.06;89.47
76864;BME280;65834;52.364;9.754;2023-12-20T00:50:20;100565.34;;;8.07;89.90
76864;BME280;65834;52.364;9.754;2023-12-20T00:52:55;100557.31;;;7.99;89.57
76864;BME280;65834;52.364;9.754;2023-12-20T00:55:24;100555.06;;;8.03;90.27
76864;BME280;65834;52.364;9.754;2023-12-20T00:57:54;100558.97;;;8.00;89.77
76864;BME280;65834;52.364;9.754;2023-12-20T01:00:26;100556.97;;;8.02;88.81
76864;BME280;65834;52.364;9.754;2023-12-20T01:02:55;100548.38;;;7.99;88.48
76864;BME280;65834;52.364;9.754;2023-12-20T01:05:27;100547.69;;;7.97;88.93
76864;BME280;65834;52.364;9.754;2023-12-20T01:07:57;100554.09;;;7.96;88.34
76864;BME280;65834;52.364;9.754;2023-12-20T01:10:27;100557.66;;;7.96;87.49
76864;BME280;65834;52.364;9.754;2023-12-20T01:12:56;100546.72;;;7.90;88.10
76864;BME280;65834;52.364;9.754;2023-12-20T01:15:27;100549.06;;;7.93;87.55
76864;BME280;65834;52.364;9.754;2023-12-20T01:17:57;100554.09;;;7.88;87.63
76864;BME280;65834;52.364;9.754;2023-12-20T01:20:29;100550.75;;;7.86;87.28
76864;BME280;65834;52.364;9.754;2023-12-20T01:22:59;100544.53;;;7.85;87.56
76864;BME280;65834;52.364;9.754;2023-12-20T01:25:28;100549.56;;;7.88;86.96
76864;BME280;65834;52.364;9.754;2023-12-20T01:27:58;100542.38;;;7.81;87.65
76864;BME280;65834;52.364;9.754;2023-12-20T01:30:28;100548.59;;;7.81;87.02
76864;BME280;65834;52.364;9.754;2023-12-20T01:32:59;100555.66;;;7.82;87.12
76864;BME280;65834;52.364;9.754;2023-12-20T01:35:31;100564.75;;;7.81;87.59
76864;BME280;65834;52.364;9.754;2023-12-20T01:38:01;100557.84;;;7.79;87.84
76864;BME280;65834;52.364;9.754;2023-12-20T01:40:30;100551.63;;;7.78;88.31
76864;BME280;65834;52.364;9.754;2023-12-20T01:43:00;100575.03;;;7.78;88.82
76864;BME280;65834;52.364;9.754;2023-12-20T01:45:31;100575.88;;;7.78;88.19
76864;BME280;65834;52.364;9.754;2023-12-20T01:48:01;100570.47;;;7.78;87.49
76864;BME280;65834;52.364;9.754;2023-12-20T01:50:36;100563.06;;;7.80;85.92
76864;BME280;65834;52.364;9.754;2023-12-20T01:53:07;100560.88;;;7.76;86.71
76864;BME280;65834;52.364;9.754;2023-12-20T01:55:39;100560.88;;;7.68;87.02
76864;BME280;65834;52.364;9.754;2023-12-20T01:58:09;100566.78;;;7.63;87.62
76864;BME280;65834;52.364;9.754;2023-12-20T02:00:39;100564.91;;;7.63;87.35
76864;BME280;65834;52.364;9.754;2023-12-20T02:03:09;100569.66;;;7.61;87.92
76864;BME280;65834;52.364;9.754;2023-12-20T02:05:42;100559.19;;;7.67;86.94
76864;BME280;65834;52.364;9.754;2023-12-20T02:08:11;100568.66;;;7.62;86.79
76864;BME280;65834;52.364;9.754;2023-12-20T02:10:41;100573.19;;;7.62;86.75
76864;BME280;65834;52.364;9.754;2023-12-20T02:13:11;100569.00;;;7.59;86.60
76864;BME280;65834;52.364;9.754;2023-12-20T02:15:41;100557.53;;;7.57;87.21
76864;BME280;65834;52.364;9.754;2023-12-20T02:18:10;100551.16;;;7.58;87.25
76864;BME280;65834;52.364;9.754;2023-12-20T02:20:44;100543.56;;;7.54;87.04
76864;BME280;65834;52.364;9.754;2023-12-20T02:23:16;100547.09;;;7.54;86.79
76864;BME280;65834;52.364;9.754;2023-12-20T02:25:46;100532.31;;;7.50;86.01
76864;BME280;65834;52.364;9.754;2023-12-20T02:28:16;100532.16;;;7.52;85.61
76864;BME280;65834;52.364;9.754;2023-12-20T02:30:46;100522.56;;;7.49;85.85
76864;BME280;65834;52.364;9.754;2023-12-20T02:33:16;100531.97;;;7.45;85.70
76864;BME280;65834;52.364;9.754;2023-12-20T02:35:45;100536.00;;;7.41;86.81
76864;BME280;65834;52.364;9.754;2023-12-20T02:38:18;100528.94;;;7.48;86.13
76864;BME280;65834;52.364;9.754;2023-12-20T02:40:48;100520.03;;;7.48;85.96
76864;BME280;65834;52.364;9.754;2023-12-20T02:43:17;100523.41;;;7.50;85.27
76864;BME280;65834;52.364;9.754;2023-12-20T02:45:47;100529.13;;;7.47;84.96
76864;BME280;65834;52.364;9.754;2023-12-20T02:48:17;100543.91;;;7.43;85.07
76864;BME280;65834;52.364;9.754;2023-12-20T02:50:48;100544.91;;;7.42;85.20
76864;BME280;65834;52.364;9.754;2023-12-20T02:53:20;100534.69;;;7.37;84.71
76864;BME280;65834;52.364;9.754;2023-12-20T02:55:50;100536.53;;;7.37;84.80
76864;BME280;65834;52.364;9.754;2023-12-20T02:58:19;100521.22;;;7.29;85.50
76864;BME280;65834;52.364;9.754;2023-12-20T03:00:52;100524.44;;;7.25;85.47
76864;BME280;65834;52.364;9.754;2023-12-20T03:03:22;100519.88;;;7.33;84.36
76864;BME280;65834;52.364;9.754;2023-12-20T03:05:51;100522.91;;;7.30;83.96
76864;BME280;65834;52.364;9.754;2023-12-20T03:08:23;100527.44;;;7.22;85.33
76864;BME280;65834;52.364;9.754;2023-12-20T03:10:59;100518.06;;;7.26;84.39
76864;BME280;65834;52.364;9.754;2023-12-20T03:13:28;100510.13;;;7.24;84.50
76864;BME280;65834;52.364;9.754;2023-12-20T03:15:58;100503.25;;;7.22;83.94
76864;BME280;65834;52.364;9.754;2023-12-20T03:18:40;100493.34;;;7.22;83.24
76864;BME280;65834;52.364;9.754;2023-12-20T03:21:10;100502.91;;;7.25;83.60
76864;BME280;65834;52.364;9.754;2023-12-20T03:23:42;100493.84;;;7.26;82.81
76864;BME280;65834;52.364;9.754;2023-12-20T03:26:12;100487.09;;;7.22;82.85
76864;BME280;65834;52.364;9.754;2023-12-20T03:28:42;100490.47;;;7.16;82.52
76864;BME280;65834;52.364;9.754;2023-12-20T03:31:11;100482.56;;;7.14;82.78
76864;BME280;65834;52.364;9.754;2023-12-20T03:33:41;100475.19;;;7.16;81.85
76864;BME280;65834;52.364;9.754;2023-12-20T03:36:11;100471.81;;;7.14;82.20
76864;BME280;65834;52.364;9.754;2023-12-20T03:38:43;100472.47;;;7.08;81.73
76864;BME280;65834;52.364;9.754;2023-12-20T03:41:13;100469.78;;;7.08;82.65
76864;BME280;65834;52.364;9.754;2023-12-20T03:43:42;100465.59;;;7.14;82.22
76864;BME280;65834;52.364;9.754;2023-12-20T03:46:12;100473.69;;;7.14;81.50
76864;BME280;65834;52.364;9.754;2023-12-20T03:48:41;100458.53;;;7.21;82.41
76864;BME280;65834;52.364;9.754;2023-12-20T03:51:11;100469.13;;;7.22;80.86
76864;BME280;65834;52.364;9.754;2023-12-20T03:53:43;100471.47;;;7.17;80.55
76864;BME280;65834;52.364;9.754;2023-12-20T03:56:13;100468.63;;;7.11;81.43
76864;BME280;65834;52.364;9.754;2023-12-20T03:58:42;100463.56;;;7.16;81.16
76864;BME280;65834;52.364;9.754;2023-12-20T04:01:12;100450.63;;;7.19;80.65
76864;BME280;65834;52.364;9.754;2023-12-20T04:03:42;100469.28;;;7.21;79.94
76864;BME280;65834;52.364;9.754;2023-12-20T04:06:16;100464.25;;;7.18;80.17
76864;BME280;65834;52.364;9.754;2023-12-20T04:08:49;100471.66;;;7.16;80.06
76864;BME280;65834;52.364;9.754;2023-12-20T04:11:18;100455.31;;;7.17;79.80
76864;BME280;65834;52.364;9.754;2023-12-20T04:13:48;100464.25;;;7.18;79.44
76864;BME280;65834;52.364;9.754;2023-12-20T04:16:18;100457.69;;;7.20;79.34
76864;BME280;65834;52.364;9.754;2023-12-20T04:18:47;100459.69;;;7.18;80.40
76864;BME280;65834;52.364;9.754;2023-12-20T04:21:17;100452.28;;;7.20;79.37
76864;BME280;65834;52.364;9.754;2023-12-20T04:23:49;100456.00;;;7.19;79.27
76864;BME280;65834;52.364;9.754;2023-12-20T04:26:19;100448.78;;;7.20;79.37
76864;BME280;65834;52.364;9.754;2023-12-20T04:28:49;100459.56;;;7.20;79.10
76864;BME280;65834;52.364;9.754;2023-12-20T04:31:20;100447.09;;;7.19;80.11
76864;BME280;65834;52.364;9.754;2023-12-20T04:33:50;100446.44;;;7.17;80.29
76864;BME280;65834;52.364;9.754;2023-12-20T04:36:20;100449.44;;;7.22;79.86
76864;BME280;65834;52.364;9.754;2023-12-20T04:38:53;100444.72;;;7.24;79.07
76864;BME280;65834;52.364;9.754;2023-12-20T04:41:22;100438.69;;;7.22;79.79
76864;BME280;65834;52.364;9.754;2023-12-20T04:43:53;100431.28;;;7.24;79.74
76864;BME280;65834;52.364;9.754;2023-12-20T04:46:23;100426.72;;;7.32;79.44
76864;BME280;65834;52.364;9.754;2023-12-20T04:48:52;100428.41;;;7.33;78.77
76864;BME280;65834;52.364;9.754;2023-12-20T04:51:22;100429.75;;;7.29;79.75
76864;BME280;65834;52.364;9.754;2023-12-20T04:53:54;100431.09;;;7.33;79.73
76864;BME280;65834;52.364;9.754;2023-12-20T04:56:24;100440.19;;;7.40;79.41
76864;BME280;65834;52.364;9.754;2023-12-20T04:58:53;100448.59;;;7.37;79.48
76864;BME280;65834;52.364;9.754;2023-12-20T05:01:23;100448.75;;;7.44;79.21
76864;BME280;65834;52.364;9.754;2023-12-20T05:03:53;100442.69;;;7.42;79.04
76864;BME280;65834;52.364;9.754;2023-12-20T05:06:22;100435.78;;;7.39;78.15
76864;BME280;65834;52.364;9.754;2023-12-20T05:08:54;100427.75;;;7.31;79.29
76864;BME280;65834;52.364;9.754;2023-12-20T05:11:24;100427.56;;;7.33;79.53
76864;BME280;65834;52.364;9.754;2023-12-20T05:13:53;100418.16;;;7.37;79.09
76864;BME280;65834;52.364;9.754;2023-12-20T05:16:23;100422.19;;;7.41;79.55
76864;BME280;65834;52.364;9.754;2023-12-20T05:18:53;100434.25;;;7.45;79.52
76864;BME280;65834;52.364;9.754;2023-12-20T05:21:23;100422.69;;;7.44;79.21
76864;BME280;65834;52.364;9.754;2023-12-20T05:23:55;100430.75;;;7.44;79.10
76864;BME280;65834;52.364;9.754;2023-12-20T05:26:24;100438.13;;;7.50;78.39
76864;BME280;65834;52.364;9.754;2023-12-20T05:28:55;100438.13;;;7.50;78.14
76864;BME280;65834;52.364;9.754;2023-12-20T05:31:25;100432.56;;;7.52;78.89
76864;BME280;65834;52.364;9.754;2023-12-20T05:33:55;100425.84;;;7.48;80.44
76864;BME280;65834;52.364;9.754;2023-12-20T05:36:25;100414.78;;;7.43;80.74
76864;BME280;65834;52.364;9.754;2023-12-20T05:38:57;100414.41;;;7.46;81.06
76864;BME280;65834;52.364;9.754;2023-12-20T05:41:27;100423.84;;;7.50;80.23
76864;BME280;65834;52.364;9.754;2023-12-20T05:43:57;100421.31;;;7.48;80.01
76864;BME280;65834;52.364;9.754;2023-12-20T05:46:29;100421.50;;;7.47;80.70
76864;BME280;65834;52.364;9.754;2023-12-20T05:48:58;100425.53;;;7.43;81.20
76864;BME280;65834;52.364;9.754;2023-12-20T05:51:28;100432.75;;;7.42;81.53
76864;BME280;65834;52.364;9.754;2023-12-20T05:54:00;100425.03;;;7.47;80.95
76864;BME280;65834;52.364;9.754;2023-12-20T05:56:31;100423.00;;;7.49;79.96
76864;BME280;65834;52.364;9.754;2023-12-20T05:59:01;100423.34;;;7.46;80.52
76864;BME280;65834;52.364;9.754;2023-12-20T06:01:30;100432.59;;;7.44;80.83
76864;BME280;65834;52.364;9.754;2023-12-20T06:04:00;100421.81;;;7.52;79.79
76864;BME280;65834;52.364;9.754;2023-12-20T06:06:31;100435.59;;;7.49;79.46
76864;BME280;65834;52.364;9.754;2023-12-20T06:09:03;100427.88;;;7.46;79.51
76864;BME280;65834;52.364;9.754;2023-12-20T06:11:33;100424.19;;;7.47;79.72
76864;BME280;65834;52.364;9.754;2023-12-20T06:14:03;100420.50;;;7.40;80.25
76864;BME280;65834;52.364;9.754;2023-12-20T06:16:32;100420.31;;;7.41;79.91
76864;BME280;65834;52.364;9.754;2023-12-20T06:19:02;100418.81;;;7.39;79.92
76864;BME280;65834;52.364;9.754;2023-12-20T06:21:32;100419.31;;;7.42;79.26
76864;BME280;65834;52.364;9.754;2023-12-20T06:24:04;100422.19;;;7.41;79.08
76864;BME280;65834;52.364;9.754;2023-12-20T06:26:34;100437.31;;;7.34;80.02
76864;BME280;65834;52.364;9.754;2023-12-20T06:29:04;100430.59;;;7.38;79.96
76864;BME280;65834;52.364;9.754;2023-12-20T06:31:33;100424.88;;;7.41;80.45
76864;BME280;65834;52.364;9.754;2023-12-20T06:34:04;100418.66;;;7.40;81.09
76864;BME280;65834;52.364;9.754;2023-12-20T06:36:34;100427.88;;;7.46;80.21
76864;BME280;65834;52.364;9.754;2023-12-20T06:39:06;100426.88;;;7.47;80.20
76864;BME280;65834;52.364;9.754;2023-12-20T06:41:36;100421.81;;;7.52;79.23
76864;BME280;65834;52.364;9.754;2023-12-20T06:44:05;100422.66;;;7.52;79.40
76864;BME280;65834;52.364;9.754;2023-12-20T06:46:35;100425.84;;;7.48;79.62
76864;BME280;65834;52.364;9.754;2023-12-20T06:49:05;100415.78;;;7.50;79.36
76864;BME280;65834;52.364;9.754;2023-12-20T06:51:34;100423.66;;;7.51;79.22
76864;BME280;65834;52.364;9.754;2023-12-20T06:54:07;100404.81;;;7.51;78.73
76864;BME280;65834;52.364;9.754;2023-12-20T06:56:36;100407.00;;;7.48;78.15
76864;BME280;65834;52.364;9.754;2023-12-20T06:59:06;100412.72;;;7.45;78.19
76864;BME280;65834;52.364;9.754;2023-12-20T07:01:35;100406.03;;;7.41;78.60
76864;BME280;65834;52.364;9.754;2023-12-20T07:04:06;100409.38;;;7.43;78.73
76864;BME280;65834;52.364;9.754;2023-12-20T07:06:35;100408.72;;;7.41;78.58
76864;BME280;65834;52.364;9.754;2023-12-20T07:09:07;100397.13;;;7.40;78.31
76864;BME280;65834;52.364;9.754;2023-12-20T07:11:37;100405.19;;;7.40;78.39
76864;BME280;65834;52.364;9.754;2023-12-20T07:14:07;100404.34;;;7.40;78.35
76864;BME280;65834;52.364;9.754;2023-12-20T07:16:36;100402.00;;;7.37;78.82
76864;BME280;65834;52.364;9.754;2023-12-20T07:19:07;100405.88;;;7.34;78.89
76864;BME280;65834;52.364;9.754;2023-12-20T07:21:36;100400.50;;;7.34;79.25
76864;BME280;65834;52.364;9.754;2023-12-20T07:24:09;100379.47;;;7.38;79.06
76864;BME280;65834;52.364;9.754;2023-12-20T07:26:38;100387.56;;;7.38;78.06
76864;BME280;65834;52.364;9.754;2023-12-20T07:29:08;100404.84;;;7.35;77.30
76864;BME280;65834;52.364;9.754;2023-12-20T07:31:37;100414.13;;;7.33;77.71
76864;BME280;65834;52.364;9.754;2023-12-20T07:34:08;100405.88;;;7.34;77.52
76864;BME280;65834;52.364;9.754;2023-12-20T07:36:44;100399.31;;;7.37;77.72
76864;BME280;65834;52.364;9.754;2023-12-20T07:39:16;100412.56;;;7.38;78.33
76864;BME280;65834;52.364;9.754;2023-12-20T07:41:46;100402.50;;;7.40;78.85
76864;BME280;65834;52.364;9.754;2023-12-20T07:44:15;100404.16;;;7.41;79.20
76864;BME280;65834;52.364;9.754;2023-12-20T07:46:45;100413.28;;;7.40;79.97
76864;BME280;65834;52.364;9.754;2023-12-20T07:49:15;100392.75;;;7.39;80.21
76864;BME280;65834;52.364;9.754;2023-12-20T07:51:45;100388.56;;;7.37;80.38
76864;BME280;65834;52.364;9.754;2023-12-20T07:54:17;100407.19;;;7.38;80.18
76864;BME280;65834;52.364;9.754;2023-12-20T07:56:47;100407.38;;;7.37;80.39
76864;BME280;65834;52.364;9.754;2023-12-20T07:59:16;100404.03;;;7.35;80.54
76864;BME280;65834;52.364;9.754;2023-12-20T08:01:58;100409.41;;;7.35;80.83
76864;BME280;65834;52.364;9.754;2023-12-20T08:04:27;100403.88;;;7.28;82.47
76864;BME280;65834;52.364;9.754;2023-12-20T08:06:57;100412.78;;;7.29;82.29
76864;BME280;65834;52.364;9.754;2023-12-20T08:09:29;100404.88;;;7.27;82.71
76864;BME280;65834;52.364;9.754;2023-12-20T08:12:00;100398.00;;;7.25;83.76
76864;BME280;65834;52.364;9.754;2023-12-20T08:14:30;100390.94;;;7.24;83.70
76864;BME280;65834;52.364;9.754;2023-12-20T08:16:59;100395.47;;;7.31;83.44
76864;BME280;65834;52.364;9.754;2023-12-20T08:19:31;100390.25;;;7.38;83.07
76864;BME280;65834;52.364;9.754;2023-12-20T08:22:01;100396.94;;;7.42;82.19
76864;BME280;65834;52.364;9.754;2023-12-20T08:24:33;100382.31;;;7.36;82.34
76864;BME280;65834;52.364;9.754;2023-12-20T08:27:03;100379.81;;;7.35;82.70
76864;BME280;65834;52.364;9.754;2023-12-20T08:29:33;100389.06;;;7.40;82.79
76864;BME280;65834;52.364;9.754;2023-12-20T08:32:03;100383.47;;;7.42;82.27
76864;BME280;65834;52.364;9.754;2023-12-20T08:34:33;100369.88;;;7.43;80.83
76864;BME280;65834;52.364;9.754;2023-12-20T08:37:03;100372.56;;;7.43;81.14
76864;BME280;65834;52.364;9.754;2023-12-20T08:39:35;100373.91;;;7.47;80.75
76864;BME280;65834;52.364;9.754;2023-12-20T08:42:08;100371.88;;;7.49;80.51
76864;BME280;65834;52.364;9.754;2023-12-20T08:44:37;100365.72;;;8.33;90.88
76864;BME280;65834;52.364;9.754;2023-12-20T08:47:07;100364.34;;;8.37;82.65
76864;BME280;65834;52.364;9.754;2023-12-20T08:49:40;100358.09;;;8.37;80.76
76864;BME280;65834;52.364;9.754;2023-12-20T08:52:10;100358.34;;;8.27;79.21
76864;BME280;65834;52.364;9.754;2023-12-20T08:54:42;100348.72;;;8.02;78.95
76864;BME280;65834;52.364;9.754;2023-12-20T08:57:12;100356.53;;;7.89;78.74
76864;BME280;65834;52.364;9.754;2023-12-20T08:59:42;100356.41;;;7.82;79.45
76864;BME280;65834;52.364;9.754;2023-12-20T09:02:11;100344.69;;;7.75;79.54
76864;BME280;65834;52.364;9.754;2023-12-20T09:04:41;100340.16;;;7.68;79.97
76864;BME280;65834;52.364;9.754;2023-12-20T09:07:21;100339.31;;;7.67;80.84
76864;BME280;65834;52.364;9.754;2023-12-20T09:09:53;100333.78;;;7.69;80.47
76864;BME280;65834;52.364;9.754;2023-12-20T09:12:23;100334.13;;;7.66;80.66
76864;BME280;65834;52.364;9.754;2023-12-20T09:14:54;100322.69;;;7.63;80.98
76864;BME280;65834;52.364;9.754;2023-12-20T09:17:23;100322.16;;;7.68;80.93
76864;BME280;65834;52.364;9.754;2023-12-20T09:19:53;100317.28;;;7.72;81.08
76864;BME280;65834;52.364;9.754;2023-12-20T09:22:23;100313.38;;;7.74;80.28
76864;BME280;65834;52.364;9.754;2023-12-20T09:24:55;100312.88;;;7.71;80.49
76864;BME280;65834;52.364;9.754;2023-12-20T09:27:25;100313.72;;;7.71;79.87
76864;BME280;65834;52.364;9.754;2023-12-20T09:29:54;100296.09;;;7.69;80.07
76864;BME280;65834;52.364;9.754;2023-12-20T09:32:24;100312.06;;;7.70;79.75
76864;BME280;65834;52.364;9.754;2023-12-20T09:34:54;100313.53;;;7.73;79.94
76864;BME280;65834;52.364;9.754;2023-12-20T09:37:26;100303.47;;;7.75;79.77
76864;BME280;65834;52.364;9.754;2023-12-20T09:39:58;100296.69;;;7.79;79.68
76864;BME280;65834;52.364;9.754;2023-12-20T09:42:37;100291.31;;;7.79;79.29
76864;BME280;65834;52.364;9.754;2023-12-20T09:45:08;100299.03;;;7.82;79.00
76864;BME280;65834;52.364;9.754;2023-12-20T09:47:39;100294.47;;;7.82;79.12
76864;BME280;65834;52.364;9.754;2023-12-20T09:50:09;100301.72;;;7.82;78.73
76864;BME280;65834;52.364;9.754;2023-12-20T09:52:40;100306.09;;;7.83;78.39
76864;BME280;65834;52.364;9.754;2023-12-20T09:55:14;100292.97;;;7.80;79.08
76864;BME280;65834;52.364;9.754;2023-12-20T09:57:44;100294.31;;;7.84;78.12
76864;BME280;65834;52.364;9.754;2023-12-20T10:00:15;100271.94;;;7.83;78.29
76864;BME280;65834;52.364;9.754;2023-12-20T10:02:50;100286.38;;;7.90;77.34
76864;BME280;65834;52.364;9.754;2023-12-20T10:05:26;100279.78;;;7.93;77.34
76864;BME280;65834;52.364;9.754;2023-12-20T10:07:56;100270.66;;;7.94;77.46
76864;BME280;65834;52.364;9.754;2023-12-20T10:10:30;100291.84;;;7.97;77.82
76864;BME280;65834;52.364;9.754;2023-12-20T10:13:12;100273.00;;;7.97;77.32
76864;BME280;65834;52.364;9.754;2023-12-20T10:15:42;100276.38;;;7.99;77.66
76864;BME280;65834;52.364;9.754;2023-12-20T10:18:12;100277.66;;;8.03;77.12
76864;BME280;65834;52.364;9.754;2023-12-20T10:20:42;100272.28;;;8.03;77.13
76864;BME280;65834;52.364;9.754;2023-12-20T10:23:12;100278.34;;;8.05;76.94
76864;BME280;65834;52.364;9.754;2023-12-20T10:25:55;100276.66;;;8.04;77.57
76864;BME280;65834;52.364;9.754;2023-12-20T10:28:25;100267.56;;;8.05;77.35
76864;BME280;65834;52.364;9.754;2023-12-20T10:30:55;100268.06;;;8.08;77.30
76864;BME280;65834;52.364;9.754;2023-12-20T10:33:27;100276.50;;;8.05;77.49
76864;BME280;65834;52.364;9.754;2023-12-20T10:35:56;100275.28;;;8.08;77.93
76864;BME280;65834;52.364;9.754;2023-12-20T10:38:27;100263.84;;;8.06;77.67
76864;BME280;65834;52.364;9.754;2023-12-20T10:41:01;100269.06;;;8.07;77.40
76864;BME280;65834;52.364;9.754;2023-12-20T10:43:34;100257.94;;;8.10;77.81
76864;BME280;65834;52.364;9.754;2023-12-20T10:46:05;100253.53;;;8.09;77.84
76864;BME280;65834;52.364;9.754;2023-12-20T10:48:35;100254.38;;;8.10;77.85
76864;BME280;65834;52.364;9.754;2023-12-20T10:51:05;100257.09;;;8.10;77.79
76864;BME280;65834;52.364;9.754;2023-12-20T10:53:36;100264.63;;;8.14;78.24
76864;BME280;65834;52.364;9.754;2023-12-20T10:56:12;100264.63;;;8.14;79.56
76864;BME280;65834;52.364;9.754;2023-12-20T10:58:45;100251.34;;;8.13;79.72
76864;BME280;65834;52.364;9.754;2023-12-20T11:01:16;100258.22;;;8.15;79.45
76864;BME280;65834;52.364;9.754;2023-12-20T11:03:49;100251.81;;;8.16;79.58
76864;BME280;65834;52.364;9.754;2023-12-20T11:06:32;100244.75;;;8.15;79.17
76864;BME280;65834;52.364;9.754;2023-12-20T11:09:10;100247.56;;;8.22;79.49
76864;BME280;65834;52.364;9.754;2023-12-20T11:11:55;100248.88;;;8.26;78.92
76864;BME280;65834;52.364;9.754;2023-12-20T11:14:31;100241.16;;;8.23;78.79
76864;BME280;65834;52.364;9.754;2023-12-20T11:17:07;100246.19;;;8.26;78.58
76864;BME280;65834;52.364;9.754;2023-12-20T11:19:46;100241.81;;;8.25;79.01
76864;BME280;65834;52.364;9.754;2023-12-20T11:22:34;100243.31;;;8.28;79.00
76864;BME280;65834;52.364;9.754;2023-12-20T11:25:09;100231.53;;;8.29;79.11
76864;BME280;65834;52.364;9.754;2023-12-20T11:27:43;100248.88;;;8.26;78.83
76864;BME280;65834;52.364;9.754;2023-12-20T11:30:16;100232.59;;;8.19;80.33
76864;BME280;65834;52.364;9.754;2023-12-20T11:32:46;100225.34;;;8.20;80.50
76864;BME280;65834;52.364;9.754;2023-12-20T11:35:19;100237.97;;;8.19;81.14
76864;BME280;65834;52.364;9.754;2023-12-20T11:37:51;100242.72;;;8.17;81.42
76864;BME280;65834;52.364;9.754;2023-12-20T11:40:23;100250.13;;;8.15;82.28
76864;BME280;65834;52.364;9.754;2023-12-20T11:42:55;100249.84;;;8.10;82.78
76864;BME280;65834;52.364;9.754;2023-12-20T11:45:25;100278.63;;;8.10;83.26
76864;BME280;65834;52.364;9.754;2023-12-20T11:47:56;100287.75;;;8.09;84.94
76864;BME280;65834;52.364;9.754;2023-12-20T11:50:29;100269.31;;;7.98;84.59
76864;BME280;65834;52.364;9.754;2023-12-20T11:52:59;100291.19;;;7.95;83.74
76864;BME280;65834;52.364;9.754;2023-12-20T11:55:29;100279.28;;;7.89;82.87
76864;BME280;65834;52.364;9.754;2023-12-20T11:58:01;100268.13;;;7.70;81.44
76864;BME280;65834;52.364;9.754;2023-12-20T12:00:31;100278.59;;;7.64;82.88
76864;BME280;65834;52.364;9.754;2023-12-20T12:03:01;100275.13;;;7.56;83.18
76864;BME280;65834;52.364;9.754;2023-12-20T12:05:31;100272.31;;;7.49;84.00
76864;BME280;65834;52.364;9.754;2023-12-20T12:08:01;100262.91;;;7.45;80.82
76864;BME280;65834;52.364;9.754;2023-12-20T12:10:31;100252.19;;;7.37;81.91
76864;BME280;65834;52.364;9.754;2023-12-20T12:13:04;100248.34;;;7.32;82.34
76864;BME280;65834;52.364;9.754;2023-12-20T12:15:34;100244.13;;;7.29;81.83
76864;BME280;65834;52.364;9.754;2023-12-20T12:18:05;100252.25;;;7.21;82.25
76864;BME280;65834;52.364;9.754;2023-12-20T12:20:34;100242.34;;;7.22;82.88
76864;BME280;65834;52.364;9.754;2023-12-20T12:23:05;100236.47;;;7.18;81.41
76864;BME280;65834;52.364;9.754;2023-12-20T12:25:36;100252.91;;;7.23;80.53
76864;BME280;65834;52.364;9.754;2023-12-20T12:28:11;100249.91;;;7.18;81.32
76864;BME280;65834;52.364;9.754;2023-12-20T12:30:41;100252.81;;;7.17;81.92
76864;BME280;65834;52.364;9.754;2023-12-20T12:33:19;100254.66;;;7.16;80.49
76864;BME280;65834;52.364;9.754;2023-12-20T12:35:49;100239.16;;;7.18;80.11
76864;BME280;65834;52.364;9.754;2023-12-20T12:38:20;100253.44;;;7.19;81.64
76864;BME280;65834;52.364;9.754;2023-12-20T12:40:50;100251.59;;;7.19;80.66
76864;BME280;65834;52.364;9.754;2023-12-20T12:43:23;100250.91;;;7.17;80.77
76864;BME280;65834;52.364;9.754;2023-12-20T12:45:53;100242.50;;;7.20;81.06
76864;BME280;65834;52.364;9.754;2023-12-20T12:48:23;100240.84;;;7.19;80.83
76864;BME280;65834;52.364;9.754;2023-12-20T12:50:54;100239.81;;;7.20;76.04
76864;BME280;65834;52.364;9.754;2023-12-20T12:53:25;100245.38;;;7.19;76.86
76864;BME280;65834;52.364;9.754;2023-12-20T12:55:56;100241.00;;;7.18;75.53
76864;BME280;65834;52.364;9.754;2023-12-20T12:58:31;100227.25;;;7.13;75.49
76864;BME280;65834;52.364;9.754;2023-12-20T13:01:00;100234.69;;;7.11;75.82
76864;BME280;65834;52.364;9.754;2023-12-20T13:03:30;100243.03;;;7.16;75.44
76864;BME280;65834;52.364;9.754;2023-12-20T13:06:00;100221.53;;;7.07;76.24
76864;BME280;65834;52.364;9.754;2023-12-20T13:08:32;100222.22;;;7.09;75.65
76864;BME280;65834;52.364;9.754;2023-12-20T13:11:02;100230.78;;;7.13;76.46
76864;BME280;65834;52.364;9.754;2023-12-20T13:13:38;100230.47;;;7.08;77.17
76864;BME280;65834;52.364;9.754;2023-12-20T13:16:20;100229.59;;;7.16;76.28
76864;BME280;65834;52.364;9.754;2023-12-20T13:18:49;100218.34;;;7.12;77.06